KPRX

Cox Field Airport

Paris, Texas, USA
METAR KPRX 200456Z AUTO 15009KT 10SM BKN048 OVC065 26/21 A2995 RMK AO2 SLP146 T02610206
Observed Flight Rules
Jun-20 @ 04:56 UTC (44 minutes ago) Visual Flight Rules
Wind Visibility Clouds
150° at 9 knots 10 miles
  • Broken at 4,800' AGL
  • Overcast at 6,500' AGL
Temperatures Readings
Current 26°C / 79°F
Dewpoint 21°C / 70°F
Humidity 74%
Altimeter 29.95" Hg
Pressure 1014.6 hPa
Elevation 167
METAR KPRX 200456Z AUTO 15009KT 10SM BKN048 OVC065 26/21 A2995 RMK AO2 SLP146 T02610206
Observed Flight Rules
Jun-20 @ 04:56 UTC
(44 minutes ago)
VFR
Wind Visibility
150° at 9 knots 10 miles
Clouds
  • Broken at 4,800' AGL
  • Overcast at 6,500' AGL
Temperature Dewpoint
26°C / 79°F 21°C / 70°F
Humidity Altimeter Pressure
74% 29.95" Hg 1014.6 hPa